Time;durP1;ratioP1;P1;durP2;ratioP2;P2;SDS_P1;SDS_P2;PMS_P1;PMS_P2;Temp;Humidity;BMP_temperature;BMP_pressure;BME280_temperature;BME280_humidity;BME280_pressure;Samples;Min_cycle;Max_cycle;Signal;HPM_P1;HPM_P2
2023/06/01 00:00:06;;;;;;;17.67;3.60;;;16.80;76.90;;;;;;5051795;28;20208;-67
2023/06/01 00:02:34;;;;;;;8.10;2.63;;;16.90;76.70;;;;;;5052110;28;20196;-68
2023/06/01 00:05:01;;;;;;;10.13;2.43;;;16.90;76.40;;;;;;5052006;28;20183;-68
2023/06/01 00:07:29;;;;;;;4.40;2.20;;;16.90;75.80;;;;;;5051518;28;20199;-69
2023/06/01 00:09:57;;;;;;;9.97;2.13;;;17.00;75.60;;;;;;5051432;28;20214;-69
2023/06/01 00:12:24;;;;;;;8.03;2.03;;;17.10;75.40;;;;;;5052016;28;20247;-69
2023/06/01 00:14:52;;;;;;;7.37;2.23;;;17.20;75.30;;;;;;5051176;28;20184;-70
2023/06/01 00:17:19;;;;;;;5.80;2.00;;;17.20;74.70;;;;;;5051426;28;20215;-68
2023/06/01 00:19:47;;;;;;;15.13;2.07;;;17.30;74.80;;;;;;5051742;28;20647;-70
2023/06/01 00:22:15;;;;;;;7.47;2.27;;;17.30;74.60;;;;;;5051330;28;20188;-69
2023/06/01 00:24:43;;;;;;;4.00;1.53;;;17.40;73.80;;;;;;5047743;28;20180;-69
2023/06/01 00:27:10;;;;;;;5.80;1.77;;;17.50;73.30;;;;;;5043911;28;20266;-71
2023/06/01 00:29:37;;;;;;;3.03;1.50;;;17.60;72.70;;;;;;5050461;28;20792;-72
2023/06/01 00:32:06;;;;;;;6.77;2.10;;;17.70;72.20;;;;;;5051613;28;20262;-72
2023/06/01 00:34:33;;;;;;;5.83;2.30;;;17.70;71.40;;;;;;5051438;28;20192;-72
2023/06/01 00:37:00;;;;;;;4.23;1.57;;;17.70;71.50;;;;;;5051046;28;20180;-70
2023/06/01 00:39:28;;;;;;;2.90;1.60;;;17.80;70.90;;;;;;5046672;28;20191;-71
2023/06/01 00:41:55;;;;;;;7.40;1.67;;;17.80;70.80;;;;;;5051416;28;20633;-67
2023/06/01 00:44:22;;;;;;;7.30;1.70;;;17.80;70.70;;;;;;5047361;28;20181;-68
2023/06/01 00:46:51;;;;;;;2.07;1.50;;;17.80;70.40;;;;;;5049037;28;20242;-67
2023/06/01 00:49:19;;;;;;;5.77;1.70;;;17.80;70.60;;;;;;5053509;28;20194;-67
2023/06/01 00:51:47;;;;;;;5.83;1.43;;;17.80;70.70;;;;;;5052012;28;20191;-68
2023/06/01 00:54:14;;;;;;;3.33;1.77;;;17.80;69.90;;;;;;5048842;28;20257;-68
2023/06/01 00:56:42;;;;;;;8.17;1.93;;;17.80;69.60;;;;;;5050968;28;20638;-70
2023/06/01 00:59:09;;;;;;;2.87;1.50;;;17.80;69.40;;;;;;5044557;28;20247;-67
2023/06/01 01:01:37;;;;;;;9.70;1.50;;;17.90;69.30;;;;;;5049883;28;20223;-67
2023/06/01 01:04:04;;;;;;;3.30;1.73;;;17.90;69.30;;;;;;5049912;28;20664;-67
2023/06/01 01:07:06;;;;;;;8.77;1.93;;;17.90;69.20;;;;;;5051867;28;20222;-68
2023/06/01 01:09:41;;;;;;;5.80;1.60;;;17.90;69.20;;;;;;5044988;28;20233;-68
2023/06/01 01:19:12;;;;;;;6.00;1.80;;;17.90;69.30;;;;;;5050445;28;20186;-67
2023/06/01 01:21:47;;;;;;;6.23;1.77;;;17.90;69.70;;;;;;5048076;28;20685;-68
2023/06/01 01:24:49;;;;;;;2.93;1.60;;;17.90;69.90;;;;;;5045443;28;20653;-67
2023/06/01 01:27:46;;;;;;;5.07;1.73;;;18.00;70.00;;;;;;5052070;28;20326;-69
2023/06/01 01:30:16;;;;;;;3.93;1.40;;;18.00;69.80;;;;;;5048735;28;20549;-68
2023/06/01 01:32:44;;;;;;;3.13;1.57;;;17.90;69.90;;;;;;5050116;28;20183;-67
2023/06/01 01:35:12;;;;;;;4.87;1.60;;;18.00;69.70;;;;;;5045088;28;20541;-66
2023/06/01 01:37:51;;;;;;;3.17;1.90;;;18.00;69.80;;;;;;5046785;28;20191;-68
2023/06/01 01:40:19;;;;;;;5.20;1.43;;;18.00;69.60;;;;;;5049261;28;20302;-66
2023/06/01 01:42:47;;;;;;;2.13;0.97;;;18.00;69.90;;;;;;5048972;28;20217;-68
2023/06/01 01:45:15;;;;;;;6.47;1.30;;;18.00;69.90;;;;;;5043813;28;20187;-66
2023/06/01 01:47:55;;;;;;;1.87;1.30;;;18.00;69.60;;;;;;5051196;28;20290;-66
2023/06/01 01:50:26;;;;;;;1.87;1.10;;;18.10;69.70;;;;;;5049040;28;20175;-67
2023/06/01 01:52:55;;;;;;;2.10;1.17;;;18.10;69.40;;;;;;5050323;28;20378;-66
2023/06/01 01:55:23;;;;;;;2.50;1.30;;;18.00;69.40;;;;;;5050171;28;20179;-66
2023/06/01 01:57:57;;;;;;;1.40;1.00;;;18.10;69.60;;;;;;5048351;28;20175;-67
2023/06/01 02:00:24;;;;;;;3.00;1.27;;;18.10;69.70;;;;;;5049113;28;20208;-66
2023/06/01 02:02:52;;;;;;;4.43;1.10;;;18.10;69.10;;;;;;5047291;28;20179;-68
2023/06/01 02:05:19;;;;;;;9.67;1.60;;;18.20;69.20;;;;;;5050433;28;20271;-67
2023/06/01 02:07:47;;;;;;;2.23;1.30;;;18.20;69.30;;;;;;5049885;28;20179;-67
2023/06/01 02:10:14;;;;;;;2.37;1.30;;;18.30;69.00;;;;;;5049896;28;20266;-67
2023/06/01 02:12:41;;;;;;;3.30;1.40;;;18.40;68.90;;;;;;5047130;28;20687;-68
2023/06/01 02:15:09;;;;;;;5.47;1.33;;;18.50;68.70;;;;;;5048763;28;20187;-67
2023/06/01 02:17:37;;;;;;;5.87;1.27;;;18.60;68.00;;;;;;5046873;28;20188;-67
2023/06/01 02:20:05;;;;;;;5.77;1.57;;;18.70;67.70;;;;;;5047877;28;20258;-67
2023/06/01 02:22:33;;;;;;;6.40;1.30;;;18.80;67.30;;;;;;5045859;28;20180;-67
2023/06/01 02:25:00;;;;;;;3.47;1.70;;;18.80;67.30;;;;;;5045221;28;20172;-67
2023/06/01 02:27:27;;;;;;;10.30;1.47;;;18.90;66.90;;;;;;5049535;28;20583;-66
2023/06/01 02:29:54;;;;;;;10.67;1.37;;;18.90;66.80;;;;;;5033287;28;20192;-67
2023/06/01 02:32:22;;;;;;;2.63;1.50;;;19.00;66.70;;;;;;5049858;28;20226;-67
2023/06/01 02:34:49;;;;;;;3.10;1.37;;;19.00;66.00;;;;;;5043051;28;20525;-67
2023/06/01 02:37:17;;;;;;;3.37;1.60;;;19.00;66.10;;;;;;5049371;28;20208;-66
2023/06/01 02:39:44;;;;;;;4.03;1.40;;;19.20;65.50;;;;;;5046567;28;20180;-66
2023/06/01 02:42:11;;;;;;;3.47;1.17;;;19.20;65.80;;;;;;5035955;28;20689;-68
2023/06/01 02:44:39;;;;;;;1.97;1.27;;;19.30;65.00;;;;;;5049327;28;20267;-70
2023/06/01 02:47:06;;;;;;;1.83;1.10;;;19.40;64.90;;;;;;5050591;28;20207;-68
2023/06/01 02:49:34;;;;;;;2.73;1.00;;;19.40;63.80;;;;;;5049714;28;20176;-68
2023/06/01 02:52:01;;;;;;;4.00;1.10;;;19.50;63.60;;;;;;5050106;28;20195;-66
2023/06/01 02:54:29;;;;;;;3.30;1.17;;;19.50;62.80;;;;;;5049729;28;20176;-70
2023/06/01 02:56:56;;;;;;;5.77;1.10;;;19.50;62.80;;;;;;5048554;28;20905;-69
2023/06/01 02:59:23;;;;;;;7.00;1.43;;;19.60;62.50;;;;;;5051294;28;20183;-69
2023/06/01 03:01:51;;;;;;;3.33;0.83;;;19.70;62.50;;;;;;5052528;28;20216;-67
2023/06/01 03:04:18;;;;;;;1.13;0.80;;;19.70;62.30;;;;;;5053562;28;20196;-67
2023/06/01 03:06:45;;;;;;;2.97;1.10;;;19.70;62.50;;;;;;5051388;28;20214;-71
2023/06/01 03:09:13;;;;;;;4.57;1.30;;;19.80;62.20;;;;;;5050514;28;20275;-70
2023/06/01 03:11:42;;;;;;;2.00;1.20;;;19.80;62.10;;;;;;5050490;28;20362;-69
2023/06/01 03:14:09;;;;;;;2.90;1.43;;;19.80;61.40;;;;;;5053193;28;20592;-68
2023/06/01 03:16:37;;;;;;;2.80;1.00;;;19.80;61.80;;;;;;5051955;28;20267;-67
2023/06/01 03:19:05;;;;;;;1.67;1.00;;;19.80;61.80;;;;;;5052405;28;20198;-68
2023/06/01 03:21:32;;;;;;;5.43;1.20;;;19.80;61.10;;;;;;5049527;28;20211;-68
2023/06/01 03:23:59;;;;;;;3.33;1.00;;;19.80;61.30;;;;;;5052467;28;20176;-68
2023/06/01 03:26:28;;;;;;;2.23;1.10;;;19.70;61.40;;;;;;5049184;28;20172;-69
2023/06/01 03:28:55;;;;;;;4.00;1.40;;;19.80;61.10;;;;;;5052536;28;20191;-67
2023/06/01 03:31:23;;;;;;;2.30;1.00;;;19.80;61.30;;;;;;5052938;28;20258;-69
2023/06/01 03:33:51;;;;;;;2.27;1.10;;;19.70;61.20;;;;;;5049314;28;20195;-69
2023/06/01 03:36:18;;;;;;;2.97;0.97;;;19.80;60.80;;;;;;5052416;28;20184;-69
2023/06/01 03:38:45;;;;;;;4.37;1.10;;;19.80;61.00;;;;;;5053115;28;20638;-72
2023/06/01 03:41:13;;;;;;;2.80;1.10;;;19.80;61.00;;;;;;5053283;28;20310;-68
2023/06/01 03:43:40;;;;;;;1.47;1.00;;;19.90;60.90;;;;;;5052060;28;20179;-71
2023/06/01 03:46:08;;;;;;;4.70;1.30;;;19.90;60.80;;;;;;5051795;28;20180;-68
2023/06/01 03:48:36;;;;;;;2.53;0.97;;;19.90;61.40;;;;;;5052804;28;20757;-68
2023/06/01 03:51:03;;;;;;;4.03;1.10;;;19.90;60.70;;;;;;5045849;28;20176;-68
2023/06/01 03:53:31;;;;;;;3.30;1.00;;;20.00;60.90;;;;;;5053330;28;20234;-68
2023/06/01 03:55:58;;;;;;;4.87;1.00;;;20.00;60.60;;;;;;5052953;28;20199;-69
2023/06/01 03:58:26;;;;;;;4.50;1.17;;;20.00;60.70;;;;;;5053338;28;20176;-68
2023/06/01 04:00:54;;;;;;;2.53;1.30;;;20.00;60.90;;;;;;5053236;28;20251;-68
2023/06/01 04:03:22;;;;;;;5.93;1.20;;;20.00;61.90;;;;;;5053319;28;20184;-67
2023/06/01 04:05:50;;;;;;;2.80;1.43;;;20.00;61.80;;;;;;5052804;28;20184;-68
2023/06/01 04:08:19;;;;;;;8.17;1.90;;;19.90;62.20;;;;;;5053200;28;20176;-67
2023/06/01 04:10:47;;;;;;;8.10;1.20;;;19.90;62.50;;;;;;5053025;28;20188;-67
2023/06/01 04:13:14;;;;;;;3.03;1.43;;;19.80;62.30;;;;;;5052558;28;20180;-67
2023/06/01 04:15:41;;;;;;;3.53;1.67;;;19.80;62.30;;;;;;5049499;28;20563;-67
2023/06/01 04:18:09;;;;;;;3.43;1.63;;;19.80;62.80;;;;;;5033867;28;20188;-66
2023/06/01 04:20:36;;;;;;;3.93;1.47;;;19.80;62.80;;;;;;5045032;28;20227;-67
2023/06/01 04:23:03;;;;;;;7.63;2.23;;;19.80;62.80;;;;;;5047947;28;20237;-70
2023/06/01 04:25:31;;;;;;;6.77;1.57;;;19.90;62.80;;;;;;5052609;28;20684;-68
2023/06/01 04:27:59;;;;;;;6.77;1.10;;;19.90;62.80;;;;;;5051499;28;20206;-68
2023/06/01 04:30:26;;;;;;;3.27;1.40;;;20.10;63.00;;;;;;5051238;28;20220;-71
2023/06/01 04:32:54;;;;;;;5.73;1.37;;;20.20;63.70;;;;;;5051865;28;20194;-68
2023/06/01 04:35:22;;;;;;;2.77;1.20;;;20.30;62.80;;;;;;5050914;28;20238;-69
2023/06/01 04:37:50;;;;;;;4.43;1.47;;;20.30;62.90;;;;;;5047055;28;20189;-69
2023/06/01 04:40:17;;;;;;;2.37;1.27;;;20.30;63.40;;;;;;5048001;28;20666;-69
2023/06/01 04:42:55;;;;;;;6.17;1.30;;;20.30;63.80;;;;;;5052459;28;20238;-67
2023/06/01 04:45:25;;;;;;;4.27;1.23;;;20.30;63.90;;;;;;5052346;28;20171;-67
2023/06/01 04:47:52;;;;;;;3.10;1.07;;;20.30;63.90;;;;;;5051213;28;20183;-68
2023/06/01 04:50:20;;;;;;;4.50;1.20;;;20.30;64.20;;;;;;5051879;28;20172;-67
2023/06/01 04:52:49;;;;;;;4.23;1.20;;;20.30;64.00;;;;;;5042513;28;20230;-68
2023/06/01 04:55:16;;;;;;;3.40;1.23;;;20.30;64.10;;;;;;5049532;28;20264;-69
2023/06/01 04:57:44;;;;;;;4.87;1.20;;;20.30;64.40;;;;;;5051321;28;20180;-66
2023/06/01 05:00:13;;;;;;;1.60;1.00;;;20.40;63.80;;;;;;5051626;28;20222;-66
2023/06/01 05:02:43;;;;;;;2.43;1.27;;;20.40;64.50;;;;;;5050559;28;20190;-67
2023/06/01 05:05:11;;;;;;;3.97;1.27;;;20.40;64.60;;;;;;5050883;28;20539;-68
2023/06/01 05:07:39;;;;;;;3.43;1.30;;;20.30;62.90;;;;;;5039983;28;20668;-65
2023/06/01 05:10:09;;;;;;;5.83;1.27;;;20.30;63.40;;;;;;5047228;28;20315;-68
2023/06/01 05:12:37;;;;;;;2.70;1.40;;;20.30;63.50;;;;;;5047709;28;20302;-65
2023/06/01 05:15:07;;;;;;;1.70;1.20;;;20.30;63.40;;;;;;5049582;28;20215;-70
2023/06/01 05:17:34;;;;;;;3.17;1.40;;;20.20;63.20;;;;;;5049562;28;20266;-65
2023/06/01 05:20:02;;;;;;;3.70;1.30;;;20.20;63.00;;;;;;5049915;28;20216;-69
2023/06/01 05:22:30;;;;;;;3.10;1.70;;;20.20;62.90;;;;;;5049153;28;20188;-66
2023/06/01 05:24:57;;;;;;;5.70;1.60;;;20.20;63.50;;;;;;5045382;28;20271;-69
2023/06/01 05:27:24;;;;;;;2.87;1.43;;;20.30;63.20;;;;;;5048281;28;20188;-70
2023/06/01 05:29:52;;;;;;;6.47;1.60;;;20.30;63.40;;;;;;5048205;28;20176;-67
2023/06/01 05:32:19;;;;;;;2.93;1.60;;;20.30;63.70;;;;;;5048951;28;20262;-67
2023/06/01 05:34:46;;;;;;;6.53;1.47;;;20.60;64.10;;;;;;5046945;28;20184;-71
2023/06/01 05:37:14;;;;;;;5.37;1.50;;;20.50;64.40;;;;;;5047753;28;20184;-70
2023/06/01 05:39:41;;;;;;;3.93;1.60;;;20.80;65.90;;;;;;5049923;28;20191;-72
2023/06/01 05:42:08;;;;;;;5.03;1.80;;;22.00;62.30;;;;;;5047169;28;20220;-71
2023/06/01 05:44:37;;;;;;;2.80;1.43;;;22.60;59.70;;;;;;5047469;28;20172;-71
2023/06/01 05:47:05;;;;;;;2.80;1.60;;;23.30;56.00;;;;;;5047754;28;20543;-72
2023/06/01 05:49:32;;;;;;;10.17;2.17;;;24.00;53.40;;;;;;5045619;28;20179;-69
2023/06/01 05:52:00;;;;;;;7.27;2.17;;;24.40;52.90;;;;;;5048856;28;20230;-69
2023/06/01 05:54:28;;;;;;;3.67;1.77;;;24.60;52.30;;;;;;5047893;28;20187;-67
2023/06/01 05:56:55;;;;;;;4.83;1.80;;;25.20;49.60;;;;;;5050662;28;20538;-70
2023/06/01 05:59:22;;;;;;;5.63;1.47;;;25.00;49.50;;;;;;5049905;28;20184;-67
2023/06/01 06:01:49;;;;;;;2.87;1.03;;;24.90;49.80;;;;;;5049144;28;20222;-66
2023/06/01 06:04:17;;;;;;;7.73;1.67;;;24.00;50.70;;;;;;5053727;28;20179;-67
2023/06/01 06:06:45;;;;;;;6.37;1.30;;;23.00;53.40;;;;;;5047760;28;20187;-67
2023/06/01 06:09:13;;;;;;;8.17;2.00;;;22.30;54.80;;;;;;5050401;28;20657;-67
2023/06/01 06:11:41;;;;;;;3.13;1.50;;;21.60;56.70;;;;;;5045745;28;20189;-67
2023/06/01 06:14:11;;;;;;;3.10;1.30;;;21.20;57.70;;;;;;5049399;28;20184;-67
2023/06/01 06:16:39;;;;;;;2.93;1.20;;;20.90;58.50;;;;;;5049172;28;20191;-66
2023/06/01 06:19:07;;;;;;;6.20;1.57;;;20.80;59.00;;;;;;5047874;28;20667;-69
2023/06/01 06:21:35;;;;;;;4.43;1.53;;;20.60;59.70;;;;;;5048845;28;20216;-66
2023/06/01 06:24:03;;;;;;;4.07;1.20;;;20.30;60.40;;;;;;5048825;28;20262;-66
2023/06/01 06:26:31;;;;;;;3.83;1.37;;;20.20;60.80;;;;;;5045944;28;20214;-66
2023/06/01 06:28:58;;;;;;;3.17;1.40;;;20.00;61.40;;;;;;5050200;28;20187;-66
2023/06/01 06:31:25;;;;;;;3.33;1.30;;;19.90;62.20;;;;;;5050099;28;20232;-67
2023/06/01 06:33:53;;;;;;;4.13;1.70;;;19.70;62.80;;;;;;5049911;28;20727;-67
2023/06/01 06:36:20;;;;;;;8.60;1.80;;;19.60;63.50;;;;;;5055287;28;20191;-67
2023/06/01 06:38:48;;;;;;;3.60;1.77;;;19.50;63.90;;;;;;5054357;28;20241;-69
2023/06/01 06:41:15;;;;;;;4.07;1.77;;;19.30;64.30;;;;;;5051349;28;20227;-68
2023/06/01 06:43:43;;;;;;;2.63;1.30;;;19.20;65.00;;;;;;5054592;28;20195;-66
2023/06/01 06:46:10;;;;;;;11.43;1.77;;;19.10;65.60;;;;;;5054996;28;20188;-68
2023/06/01 06:48:37;;;;;;;3.93;1.50;;;19.00;66.00;;;;;;5053894;28;20180;-68
2023/06/01 06:51:05;;;;;;;3.93;1.50;;;18.80;66.40;;;;;;5054824;28;20741;-67
2023/06/01 06:53:33;;;;;;;4.13;2.00;;;18.80;67.10;;;;;;5047278;28;20222;-68
2023/06/01 06:56:00;;;;;;;4.33;1.80;;;18.70;67.30;;;;;;5054457;28;20279;-67
2023/06/01 06:58:28;;;;;;;12.63;2.27;;;18.50;67.90;;;;;;5054118;28;20188;-67
2023/06/01 07:00:55;;;;;;;3.57;1.53;;;18.40;68.60;;;;;;5052765;28;20215;-68
2023/06/01 07:03:23;;;;;;;6.47;1.90;;;18.30;69.20;;;;;;5054532;28;20188;-66
2023/06/01 07:05:50;;;;;;;5.07;1.60;;;18.20;70.00;;;;;;5054279;28;20179;-67
2023/06/01 07:08:17;;;;;;;2.73;1.80;;;18.00;70.60;;;;;;5054149;28;20191;-68
2023/06/01 07:10:45;;;;;;;8.17;2.10;;;17.90;70.80;;;;;;5054259;28;20187;-68
2023/06/01 07:13:13;;;;;;;7.13;1.93;;;17.80;71.00;;;;;;5053529;28;20628;-67
2023/06/01 07:15:40;;;;;;;4.10;1.57;;;17.80;70.70;;;;;;5053685;28;20196;-67
2023/06/01 07:18:07;;;;;;;4.47;1.50;;;17.80;70.80;;;;;;5054136;28;20184;-67
2023/06/01 07:20:35;;;;;;;4.83;1.47;;;17.80;70.80;;;;;;5053355;28;20211;-67
2023/06/01 07:23:02;;;;;;;5.80;1.67;;;17.80;70.60;;;;;;5045384;28;20176;-67
2023/06/01 07:25:29;;;;;;;5.83;1.73;;;17.80;70.70;;;;;;5051437;28;20702;-65
2023/06/01 07:27:58;;;;;;;5.97;1.57;;;17.70;70.50;;;;;;5052491;28;20555;-68
2023/06/01 07:30:25;;;;;;;5.67;2.00;;;17.60;70.90;;;;;;5035539;28;20231;-66
2023/06/01 07:32:52;;;;;;;5.33;1.70;;;17.50;71.20;;;;;;5053656;28;20190;-67
2023/06/01 07:35:20;;;;;;;10.03;2.13;;;17.40;71.50;;;;;;5050674;28;20764;-66
2023/06/01 07:37:47;;;;;;;5.90;2.03;;;17.30;71.90;;;;;;5048646;28;20183;-67
2023/06/01 07:40:15;;;;;;;3.80;2.10;;;17.30;71.90;;;;;;5050390;28;20234;-67
2023/06/01 07:42:42;;;;;;;5.83;2.50;;;17.20;72.20;;;;;;5051596;28;20183;-67
2023/06/01 07:45:10;;;;;;;8.77;2.10;;;17.10;72.50;;;;;;5050054;28;20587;-68
2023/06/01 07:47:38;;;;;;;8.27;2.37;;;17.00;72.90;;;;;;5046929;28;20184;-72
2023/06/01 07:50:06;;;;;;;2.63;1.93;;;16.90;73.10;;;;;;5052709;28;20186;-70
2023/06/01 07:52:33;;;;;;;6.13;2.30;;;16.90;73.40;;;;;;5050911;28;20195;-67
2023/06/01 07:55:03;;;;;;;4.87;2.27;;;16.80;73.60;;;;;;5051322;28;20554;-70
2023/06/01 07:57:30;;;;;;;6.50;2.40;;;16.80;73.90;;;;;;5033367;28;20579;-70
2023/06/01 07:59:57;;;;;;;4.97;2.40;;;16.70;74.20;;;;;;5053038;28;20188;-69
2023/06/01 08:02:25;;;;;;;5.90;2.60;;;16.70;74.30;;;;;;5050577;28;20257;-68
2023/06/01 08:04:56;;;;;;;7.90;2.33;;;16.60;74.30;;;;;;5054183;28;20235;-69
2023/06/01 08:07:27;;;;;;;7.47;2.30;;;16.60;74.60;;;;;;5051077;28;20200;-70
2023/06/01 08:09:55;;;;;;;6.80;2.47;;;16.50;74.80;;;;;;5049784;28;20230;-71
2023/06/01 08:12:22;;;;;;;5.73;2.50;;;16.50;74.90;;;;;;5056684;28;20223;-69
2023/06/01 08:14:51;;;;;;;5.67;2.70;;;16.40;75.20;;;;;;5053079;28;20180;-70
2023/06/01 08:17:18;;;;;;;9.50;2.83;;;16.40;75.40;;;;;;5051676;28;20187;-70
2023/06/01 08:19:47;;;;;;;9.33;2.60;;;16.30;75.50;;;;;;5051217;28;20253;-70
2023/06/01 08:22:15;;;;;;;9.10;2.97;;;16.30;75.80;;;;;;5048018;28;20217;-67
2023/06/01 08:24:43;;;;;;;8.03;3.87;;;16.30;76.20;;;;;;5049127;28;20636;-68
2023/06/01 08:27:23;;;;;;;13.60;5.03;;;16.30;76.00;;;;;;5051593;28;20201;-70
2023/06/01 08:29:51;;;;;;;10.07;4.40;;;16.20;76.30;;;;;;5049288;28;20215;-67
2023/06/01 08:32:18;;;;;;;8.10;3.93;;;16.20;76.40;;;;;;5049492;28;20689;-69
2023/06/01 08:34:46;;;;;;;9.27;4.77;;;16.20;76.30;;;;;;5047821;28;20253;-69
2023/06/01 08:37:14;;;;;;;10.97;5.10;;;16.10;76.60;;;;;;5051372;28;20252;-70
2023/06/01 08:39:42;;;;;;;10.93;5.63;;;16.00;76.70;;;;;;5048438;28;20179;-72
2023/06/01 08:42:16;;;;;;;13.90;6.40;;;16.00;76.80;;;;;;5049848;28;20730;-71
2023/06/01 08:44:44;;;;;;;9.90;6.20;;;16.00;77.20;;;;;;5047185;28;20270;-71
2023/06/01 08:47:12;;;;;;;10.17;5.73;;;16.00;77.20;;;;;;5034309;28;20202;-72
2023/06/01 08:49:42;;;;;;;13.23;5.60;;;15.90;77.40;;;;;;5040266;28;20179;-69
2023/06/01 08:52:14;;;;;;;8.83;5.70;;;15.90;77.50;;;;;;5052256;28;20269;-70
2023/06/01 08:54:41;;;;;;;13.70;5.53;;;15.80;77.70;;;;;;5034106;28;20595;-69
2023/06/01 08:57:09;;;;;;;9.00;5.80;;;15.80;77.90;;;;;;5050975;28;20598;-70
2023/06/01 08:59:38;;;;;;;8.07;4.53;;;15.80;78.10;;;;;;5050225;28;20579;-70
2023/06/01 09:02:07;;;;;;;10.93;4.53;;;15.70;78.10;;;;;;5048360;28;20616;-69
2023/06/01 09:04:37;;;;;;;12.27;5.00;;;15.70;78.50;;;;;;5048279;28;20538;-69
2023/06/01 09:07:04;;;;;;;11.93;4.73;;;15.70;78.60;;;;;;5046880;28;20276;-71
2023/06/01 09:09:33;;;;;;;12.40;5.90;;;15.70;78.80;;;;;;5049465;28;20200;-71
2023/06/01 09:12:29;;;;;;;8.17;5.00;;;15.60;79.20;;;;;;5051231;28;20215;-70
2023/06/01 09:15:09;;;;;;;10.90;4.87;;;15.60;79.40;;;;;;5049616;28;20341;-72
2023/06/01 09:17:37;;;;;;;11.63;5.13;;;15.60;79.70;;;;;;5047593;28;20760;-70
2023/06/01 09:20:05;;;;;;;12.63;5.53;;;15.50;80.10;;;;;;5050949;28;20186;-71
2023/06/01 09:22:46;;;;;;;13.07;5.83;;;15.50;80.10;;;;;;5047342;28;20527;-70
2023/06/01 09:25:15;;;;;;;11.90;5.80;;;15.40;80.30;;;;;;5048163;28;20189;-70
2023/06/01 09:28:02;;;;;;;12.90;6.40;;;15.30;80.60;;;;;;5047567;28;20233;-70
2023/06/01 09:30:43;;;;;;;15.77;6.50;;;15.30;80.70;;;;;;5045769;28;20367;-69
2023/06/01 09:33:16;;;;;;;15.60;7.13;;;15.30;81.00;;;;;;5049267;28;20186;-68
2023/06/01 09:35:49;;;;;;;13.53;6.97;;;15.30;81.20;;;;;;5049934;28;20184;-70
2023/06/01 09:38:25;;;;;;;17.03;7.07;;;15.30;81.30;;;;;;5041603;28;20187;-70
2023/06/01 09:41:00;;;;;;;14.07;7.90;;;15.40;81.00;;;;;;5045170;28;20237;-70
2023/06/01 09:43:27;;;;;;;12.83;7.37;;;15.50;81.10;;;;;;5048680;28;20191;-72
2023/06/01 09:46:08;;;;;;;13.00;7.23;;;15.50;80.80;;;;;;5046410;28;20182;-66
2023/06/01 09:48:36;;;;;;;13.03;6.53;;;15.70;80.30;;;;;;5050210;28;20313;-72
2023/06/01 09:51:04;;;;;;;10.17;6.03;;;15.80;79.30;;;;;;5049454;28;20647;-71
2023/06/01 09:53:44;;;;;;;10.87;6.10;;;16.00;78.60;;;;;;5047040;28;20574;-68
2023/06/01 09:56:11;;;;;;;16.33;7.33;;;16.00;78.50;;;;;;5049071;28;20212;-70
2023/06/01 09:58:40;;;;;;;18.40;7.40;;;16.10;78.60;;;;;;5046875;28;20601;-70
2023/06/01 10:01:08;;;;;;;15.17;7.07;;;16.10;78.90;;;;;;5048116;28;20215;-68
2023/06/01 10:03:41;;;;;;;21.10;6.33;;;16.10;79.40;;;;;;5043853;28;20177;-70
2023/06/01 10:06:12;;;;;;;11.87;5.60;;;16.10;80.50;;;;;;5050395;28;20198;-68
2023/06/01 10:08:41;;;;;;;13.80;5.80;;;16.20;81.00;;;;;;5046331;28;20174;-68
2023/06/01 10:11:09;;;;;;;30.40;7.10;;;16.20;81.80;;;;;;5048135;28;20206;-68
2023/06/01 10:13:36;;;;;;;27.30;6.67;;;16.30;82.80;;;;;;5047034;28;20188;-70
2023/06/01 10:16:04;;;;;;;25.70;7.03;;;16.40;83.70;;;;;;5046134;28;20534;-67
2023/06/01 10:18:32;;;;;;;28.97;8.00;;;16.50;83.90;;;;;;5045351;28;20214;-67
2023/06/01 10:21:00;;;;;;;26.40;7.70;;;16.40;84.50;;;;;;5032017;28;20225;-70
2023/06/01 10:23:27;;;;;;;35.90;7.23;;;16.50;84.80;;;;;;5049855;28;20692;-71
2023/06/01 10:25:55;;;;;;;28.53;7.13;;;16.40;85.20;;;;;;5047632;28;20209;-70
2023/06/01 10:28:23;;;;;;;19.27;6.90;;;16.40;85.30;;;;;;5048424;28;20193;-70
2023/06/01 10:31:29;;;;;;;32.40;7.33;;;16.30;85.70;;;;;;5048737;28;20230;-70
2023/06/01 10:33:57;;;;;;;27.73;6.57;;;16.30;86.20;;;;;;5019517;28;20186;-68
2023/06/01 10:36:45;;;;;;;28.50;6.93;;;16.30;86.50;;;;;;5045572;28;20187;-70
2023/06/01 10:39:31;;;;;;;32.23;8.47;;;16.20;86.60;;;;;;5042601;28;20270;-72
2023/06/01 10:42:15;;;;;;;32.17;8.10;;;16.20;86.80;;;;;;5047902;28;20309;-72
2023/06/01 10:44:52;;;;;;;30.67;8.43;;;16.10;86.90;;;;;;5046760;28;20211;-71
2023/06/01 10:47:22;;;;;;;33.07;9.87;;;16.00;87.10;;;;;;5048526;28;20227;-72
2023/06/01 10:49:52;;;;;;;34.50;10.57;;;15.90;87.20;;;;;;5048696;28;20203;-70
2023/06/01 10:52:34;;;;;;;36.07;9.60;;;15.90;87.50;;;;;;5040762;28;20184;-71
2023/06/01 10:55:07;;;;;;;31.87;9.73;;;15.80;87.60;;;;;;5048519;28;20657;-71
2023/06/01 10:57:35;;;;;;;32.97;10.03;;;15.80;87.60;;;;;;5047484;28;20198;-69
2023/06/01 11:00:27;;;;;;;37.90;10.43;;;15.70;87.80;;;;;;5047530;28;20226;-71
2023/06/01 11:03:02;;;;;;;31.80;9.83;;;15.60;88.00;;;;;;5048296;28;20815;-71
2023/06/01 11:05:51;;;;;;;37.07;11.07;;;15.60;88.10;;;;;;5047953;28;20603;-71
2023/06/01 11:08:25;;;;;;;39.43;10.87;;;15.50;88.10;;;;;;5049653;28;20196;-68
2023/06/01 11:13:30;;;;;;;41.00;10.33;;;15.40;88.50;;;;;;5050051;28;20243;-71
2023/06/01 11:16:42;;;;;;;34.17;10.80;;;15.50;88.90;;;;;;5049765;28;20186;-69
2023/06/01 11:19:10;;;;;;;37.17;10.30;;;15.40;88.80;;;;;;5050288;28;20201;-70
2023/06/01 11:21:44;;;;;;;42.37;11.07;;;15.30;88.70;;;;;;5049773;28;20242;-69
2023/06/01 11:24:13;;;;;;;29.90;9.93;;;15.30;88.90;;;;;;5051686;28;20234;-72
2023/06/01 11:26:50;;;;;;;47.53;11.97;;;15.20;89.00;;;;;;5053432;28;20184;-71
2023/06/01 11:29:21;;;;;;;39.77;11.67;;;15.30;89.30;;;;;;5050882;28;20768;-70
2023/06/01 11:31:56;;;;;;;36.50;10.67;;;15.20;89.30;;;;;;5053124;28;20316;-71
2023/06/01 11:34:41;;;;;;;42.07;12.67;;;15.20;89.40;;;;;;5054093;28;20302;-72
2023/06/01 11:37:19;;;;;;;30.37;11.43;;;15.20;89.70;;;;;;5048787;28;20314;-69
2023/06/01 11:39:48;;;;;;;33.73;11.33;;;15.10;89.60;;;;;;5052151;28;20230;-71
2023/06/01 11:42:18;;;;;;;34.30;11.37;;;15.10;89.80;;;;;;5053574;28;20223;-71
2023/06/01 11:44:59;;;;;;;45.67;13.80;;;15.20;90.10;;;;;;5051798;28;20214;-71
2023/06/01 11:47:31;;;;;;;46.40;13.80;;;15.20;90.30;;;;;;5034505;28;20252;-71
2023/06/01 11:49:59;;;;;;;41.70;15.07;;;15.30;90.50;;;;;;5051765;28;20186;-69
2023/06/01 11:52:27;;;;;;;36.70;17.03;;;15.20;90.30;;;;;;5052690;28;20244;-69
2023/06/01 11:55:02;;;;;;;43.10;17.67;;;15.20;90.40;;;;;;5052659;28;20215;-70
2023/06/01 11:57:29;;;;;;;48.07;17.53;;;15.20;90.40;;;;;;5049866;28;20276;-70
2023/06/01 11:59:58;;;;;;;42.93;17.03;;;15.20;90.40;;;;;;5052820;28;20226;-71
2023/06/01 12:02:29;;;;;;;47.30;19.27;;;15.20;90.70;;;;;;5052884;28;20691;-72
2023/06/01 12:05:01;;;;;;;44.97;19.40;;;15.20;90.80;;;;;;5054803;28;20644;-71
2023/06/01 12:07:29;;;;;;;39.53;19.60;;;15.20;90.90;;;;;;5054792;28;20196;-70
2023/06/01 12:10:00;;;;;;;41.87;17.00;;;15.20;90.90;;;;;;5053710;28;20200;-70
2023/06/01 12:12:33;;;;;;;46.50;19.90;;;15.20;91.00;;;;;;5051918;28;20196;-69
2023/06/01 12:15:00;;;;;;;47.80;22.17;;;15.20;91.10;;;;;;5052266;28;20195;-71
2023/06/01 12:17:49;;;;;;;43.27;23.73;;;15.30;91.10;;;;;;5052967;28;20248;-71
2023/06/01 12:20:37;;;;;;;48.83;21.80;;;15.30;91.30;;;;;;5047836;28;20184;-68
2023/06/01 12:23:19;;;;;;;48.87;25.20;;;15.30;91.30;;;;;;5053051;28;20244;-70
2023/06/01 12:25:52;;;;;;;44.43;25.20;;;15.30;91.30;;;;;;5051816;28;20185;-70
2023/06/01 12:28:22;;;;;;;45.43;25.43;;;15.20;91.30;;;;;;5052968;28;20202;-69
2023/06/01 12:30:49;;;;;;;40.17;25.40;;;15.30;91.40;;;;;;5051175;28;20249;-70
2023/06/01 12:33:35;;;;;;;55.00;28.13;;;15.30;91.50;;;;;;5052282;28;20269;-70
2023/06/01 12:36:06;;;;;;;56.27;29.93;;;15.30;91.50;;;;;;5048568;28;20187;-70
2023/06/01 12:38:37;;;;;;;46.13;29.37;;;15.20;91.60;;;;;;5052243;28;20652;-70
2023/06/01 12:41:13;;;;;;;45.43;29.53;;;15.20;91.50;;;;;;5048289;28;20405;-71
2023/06/01 12:43:45;;;;;;;56.20;29.67;;;15.10;91.50;;;;;;5052203;28;20191;-70
2023/06/01 12:46:26;;;;;;;47.10;32.00;;;15.10;91.60;;;;;;5047649;28;20208;-71
2023/06/01 12:49:11;;;;;;;48.10;33.07;;;15.00;91.60;;;;;;5052443;28;20180;-70
2023/06/01 12:51:38;;;;;;;52.00;32.17;;;15.00;91.70;;;;;;5049358;28;20183;-69
2023/06/01 12:54:06;;;;;;;39.90;31.70;;;15.00;91.70;;;;;;5047016;28;20190;-69
2023/06/01 12:56:33;;;;;;;50.70;35.30;;;14.90;91.70;;;;;;5049015;28;20325;-71
2023/06/01 12:59:01;;;;;;;66.40;38.03;;;14.90;91.70;;;;;;5051996;28;20662;-72
2023/06/01 13:01:28;;;;;;;58.90;40.73;;;14.90;91.90;;;;;;5052493;28;20681;-71
2023/06/01 13:03:56;;;;;;;57.47;41.27;;;15.00;92.00;;;;;;5049708;28;20182;-69